Time;durP1;ratioP1;P1;durP2;ratioP2;P2;SDS_P1;SDS_P2;PMS_P1;PMS_P2;Temp;Humidity;BMP_temperature;BMP_pressure;BME280_temperature;BME280_humidity;BME280_pressure;Samples;Min_cycle;Max_cycle;Signal;HPM_P1;HPM_P2
2024/03/08 00:00:09;;;;;;;29.48;13.95;;;;;;;;;;5057704;28;20029;-58
2024/03/08 00:02:36;;;;;;;30.85;14.57;;;;;;;;;;5080699;28;20111;-58
2024/03/08 00:05:02;;;;;;;32.17;15.13;;;;;;;;;;5069677;28;20119;-57
2024/03/08 00:07:28;;;;;;;31.75;13.55;;;;;;;;;;5073198;28;20119;-57
2024/03/08 00:09:54;;;;;;;30.02;13.90;;;;;;;;;;5077244;28;20472;-58
2024/03/08 00:12:20;;;;;;;31.17;14.10;;;;;;;;;;5071666;28;20503;-57
2024/03/08 00:14:46;;;;;;;32.42;13.93;;;;;;;;;;5083590;28;20391;-58
2024/03/08 00:17:12;;;;;;;29.15;13.30;;;;;;;;;;5080160;28;20044;-58
2024/03/08 00:19:39;;;;;;;32.33;14.02;;;;;;;;;;5073653;28;20098;-57
2024/03/08 00:22:05;;;;;;;29.30;13.38;;;;;;;;;;5078616;28;20043;-57
2024/03/08 00:24:32;;;;;;;29.60;12.80;;;;;;;;;;5071712;28;20048;-57
2024/03/08 00:26:58;;;;;;;24.17;12.43;;;;;;;;;;5075935;28;20503;-57
2024/03/08 00:29:24;;;;;;;25.73;12.63;;;;;;;;;;5071772;28;20029;-57
2024/03/08 00:31:50;;;;;;;30.27;13.00;;;;;;;;;;5076764;28;20565;-57
2024/03/08 00:34:16;;;;;;;26.58;12.80;;;;;;;;;;5078603;28;20021;-57
2024/03/08 00:36:42;;;;;;;29.38;13.77;;;;;;;;;;5072794;28;20029;-57
2024/03/08 00:39:08;;;;;;;28.58;13.50;;;;;;;;;;5070739;28;20048;-57
2024/03/08 00:41:34;;;;;;;30.25;13.50;;;;;;;;;;5079243;28;20020;-54
2024/03/08 00:44:00;;;;;;;30.77;12.65;;;;;;;;;;5074431;28;20396;-54
2024/03/08 00:46:28;;;;;;;30.95;13.18;;;;;;;;;;5090495;28;20399;-57
2024/03/08 00:48:55;;;;;;;31.35;13.93;;;;;;;;;;5080388;28;20033;-55
2024/03/08 00:51:21;;;;;;;30.25;13.75;;;;;;;;;;5068768;28;20459;-57
2024/03/08 00:53:47;;;;;;;31.27;14.45;;;;;;;;;;5076824;28;20031;-57
2024/03/08 00:56:13;;;;;;;29.95;14.05;;;;;;;;;;5071263;28;20033;-57
2024/03/08 00:58:40;;;;;;;29.75;13.98;;;;;;;;;;5082439;28;20058;-56
2024/03/08 01:01:06;;;;;;;35.15;13.00;;;;;;;;;;5072686;28;20074;-55
2024/03/08 01:03:32;;;;;;;25.90;12.65;;;;;;;;;;5078076;28;20467;-56
2024/03/08 01:06:01;;;;;;;26.55;12.68;;;;;;;;;;5083214;28;20509;-56
2024/03/08 01:08:27;;;;;;;25.23;12.23;;;;;;;;;;5074713;28;20420;-57
2024/03/08 01:10:53;;;;;;;30.10;13.90;;;;;;;;;;5076453;28;20052;-58
2024/03/08 01:13:19;;;;;;;31.02;13.20;;;;;;;;;;5074571;28;20024;-55
2024/03/08 01:15:45;;;;;;;26.75;12.88;;;;;;;;;;5079032;28;20467;-56
2024/03/08 01:18:12;;;;;;;30.85;13.60;;;;;;;;;;5077670;28;20040;-57
2024/03/08 01:20:39;;;;;;;31.80;13.43;;;;;;;;;;5067059;28;20119;-58
2024/03/08 01:23:07;;;;;;;29.23;12.63;;;;;;;;;;5067590;28;20024;-58
2024/03/08 01:25:33;;;;;;;31.48;15.00;;;;;;;;;;5068722;28;20037;-58
2024/03/08 01:27:59;;;;;;;31.08;13.77;;;;;;;;;;5071389;28;20028;-57
2024/03/08 01:30:25;;;;;;;31.30;13.65;;;;;;;;;;5049950;28;20425;-57
2024/03/08 01:32:51;;;;;;;38.88;13.55;;;;;;;;;;5081666;28;20031;-57
2024/03/08 01:35:18;;;;;;;31.65;14.15;;;;;;;;;;5083693;28;20139;-54
2024/03/08 01:37:44;;;;;;;29.42;13.40;;;;;;;;;;5075114;28;20032;-56
2024/03/08 01:40:10;;;;;;;31.83;13.75;;;;;;;;;;5073320;28;20033;-57
2024/03/08 01:42:39;;;;;;;37.63;15.20;;;;;;;;;;5070923;28;20107;-57
2024/03/08 01:45:07;;;;;;;33.22;15.88;;;;;;;;;;5055498;28;20036;-57
2024/03/08 01:47:33;;;;;;;33.67;15.20;;;;;;;;;;5073569;28;20077;-56
2024/03/08 01:50:03;;;;;;;41.22;16.40;;;;;;;;;;5079676;28;20373;-57
2024/03/08 01:52:32;;;;;;;32.65;15.57;;;;;;;;;;5053862;28;20025;-56
2024/03/08 01:55:00;;;;;;;36.63;15.57;;;;;;;;;;5071255;28;20489;-57
2024/03/08 01:57:26;;;;;;;34.83;16.08;;;;;;;;;;5075073;28;20389;-56
2024/03/08 01:59:55;;;;;;;35.00;16.15;;;;;;;;;;5073243;28;20399;-57
2024/03/08 02:02:22;;;;;;;35.47;16.50;;;;;;;;;;5079740;28;20115;-51
2024/03/08 02:04:48;;;;;;;38.22;16.77;;;;;;;;;;5083980;28;20046;-51
2024/03/08 02:07:14;;;;;;;35.78;15.73;;;;;;;;;;5080166;28;20031;-51
2024/03/08 02:09:40;;;;;;;38.90;15.90;;;;;;;;;;5074463;28;20024;-52
2024/03/08 02:12:06;;;;;;;39.72;16.58;;;;;;;;;;5073715;28;20099;-53
2024/03/08 02:14:32;;;;;;;37.45;16.77;;;;;;;;;;5073550;28;20024;-54
2024/03/08 02:17:04;;;;;;;38.45;17.17;;;;;;;;;;5074113;28;20028;-52
2024/03/08 02:19:30;;;;;;;40.53;17.75;;;;;;;;;;5081240;28;20448;-51
2024/03/08 02:21:57;;;;;;;38.70;16.60;;;;;;;;;;5080464;28;20499;-52
2024/03/08 02:24:23;;;;;;;34.47;15.32;;;;;;;;;;5073956;28;20068;-52
2024/03/08 02:26:49;;;;;;;39.58;16.25;;;;;;;;;;5074674;28;20023;-51
2024/03/08 02:29:15;;;;;;;33.80;15.15;;;;;;;;;;5073885;28;20024;-54
2024/03/08 02:31:42;;;;;;;40.55;16.63;;;;;;;;;;5090395;28;20086;-51
2024/03/08 02:34:09;;;;;;;40.50;17.40;;;;;;;;;;5078691;28;20029;-51
2024/03/08 02:36:35;;;;;;;42.42;16.88;;;;;;;;;;5077094;28;20025;-54
2024/03/08 02:39:03;;;;;;;33.83;15.32;;;;;;;;;;5082863;28;20079;-54
2024/03/08 02:41:29;;;;;;;37.53;16.77;;;;;;;;;;5074666;28;20029;-51
2024/03/08 02:43:55;;;;;;;40.60;16.58;;;;;;;;;;5080913;28;20124;-53
2024/03/08 02:46:21;;;;;;;32.00;16.48;;;;;;;;;;5074407;28;20024;-51
2024/03/08 02:48:47;;;;;;;39.95;17.90;;;;;;;;;;5082518;28;20027;-53
2024/03/08 02:51:13;;;;;;;35.35;15.77;;;;;;;;;;5087413;28;20024;-51
2024/03/08 02:53:39;;;;;;;35.25;15.23;;;;;;;;;;5073812;28;20052;-50
2024/03/08 02:56:08;;;;;;;38.20;15.80;;;;;;;;;;5077139;28;20074;-52
2024/03/08 02:58:34;;;;;;;34.72;14.27;;;;;;;;;;5073804;28;20032;-52
2024/03/08 03:01:00;;;;;;;33.50;15.18;;;;;;;;;;5085031;28;20387;-51
2024/03/08 03:03:26;;;;;;;30.88;15.85;;;;;;;;;;5084391;28;20033;-52
2024/03/08 03:05:55;;;;;;;35.90;15.68;;;;;;;;;;5073247;28;20574;-54
2024/03/08 03:08:21;;;;;;;34.58;14.52;;;;;;;;;;5055199;28;20093;-51
2024/03/08 03:10:47;;;;;;;39.10;16.17;;;;;;;;;;5077425;28;20455;-52
2024/03/08 03:13:14;;;;;;;35.45;16.30;;;;;;;;;;5078847;28;20100;-52
2024/03/08 03:15:41;;;;;;;40.65;17.55;;;;;;;;;;5073249;28;20024;-52
2024/03/08 03:18:08;;;;;;;37.80;16.02;;;;;;;;;;5083979;28;20043;-52
2024/03/08 03:20:39;;;;;;;37.38;17.65;;;;;;;;;;5093183;28;20452;-54
2024/03/08 03:23:07;;;;;;;37.95;15.95;;;;;;;;;;5094494;28;20027;-54
2024/03/08 03:25:35;;;;;;;44.03;17.90;;;;;;;;;;5092187;28;20027;-54
2024/03/08 03:28:01;;;;;;;38.42;17.98;;;;;;;;;;5083906;28;20024;-52
2024/03/08 03:30:30;;;;;;;38.88;16.80;;;;;;;;;;5103162;28;20039;-53
2024/03/08 03:33:00;;;;;;;35.45;16.55;;;;;;;;;;5113647;28;20098;-53
2024/03/08 03:35:26;;;;;;;36.45;16.67;;;;;;;;;;5089757;28;20047;-52
2024/03/08 03:38:02;;;;;;;40.00;17.70;;;;;;;;;;5090579;28;20035;-54
2024/03/08 03:40:31;;;;;;;44.55;17.40;;;;;;;;;;5068794;28;20043;-54
2024/03/08 03:42:57;;;;;;;43.88;17.42;;;;;;;;;;5072761;28;20020;-54
2024/03/08 03:45:23;;;;;;;40.17;17.80;;;;;;;;;;5085017;28;20028;-54
2024/03/08 03:47:50;;;;;;;42.58;16.35;;;;;;;;;;5092631;28;20028;-54
2024/03/08 03:50:16;;;;;;;42.05;16.60;;;;;;;;;;5070819;28;20024;-53
2024/03/08 03:52:42;;;;;;;40.25;16.65;;;;;;;;;;5092396;28;20081;-54
2024/03/08 03:55:11;;;;;;;37.90;16.92;;;;;;;;;;5095704;28;20024;-53
2024/03/08 03:57:36;;;;;;;38.40;16.50;;;;;;;;;;5097654;28;20040;-54
2024/03/08 04:00:02;;;;;;;39.80;16.90;;;;;;;;;;5093904;28;20462;-51
2024/03/08 04:02:28;;;;;;;35.08;16.92;;;;;;;;;;5091194;28;20054;-53
2024/03/08 04:04:54;;;;;;;43.60;17.70;;;;;;;;;;5092181;28;20036;-53
2024/03/08 04:07:20;;;;;;;43.78;17.27;;;;;;;;;;5091654;28;20098;-53
2024/03/08 04:09:46;;;;;;;41.28;17.63;;;;;;;;;;5094216;28;20028;-54
2024/03/08 04:12:15;;;;;;;44.35;17.95;;;;;;;;;;5093061;28;20093;-54
2024/03/08 04:14:41;;;;;;;40.35;17.58;;;;;;;;;;5073959;28;20035;-52
2024/03/08 04:17:08;;;;;;;38.00;16.17;;;;;;;;;;5092110;28;20501;-53
2024/03/08 04:19:34;;;;;;;39.15;17.83;;;;;;;;;;5077601;28;20082;-53
2024/03/08 04:22:02;;;;;;;43.72;17.15;;;;;;;;;;5089635;28;20027;-55
2024/03/08 04:24:28;;;;;;;41.20;17.02;;;;;;;;;;5083005;28;20055;-54
2024/03/08 04:26:57;;;;;;;38.58;16.98;;;;;;;;;;5072329;28;20025;-56
2024/03/08 04:29:23;;;;;;;36.50;15.63;;;;;;;;;;5068020;28;20056;-54
2024/03/08 04:31:49;;;;;;;32.92;15.05;;;;;;;;;;5059892;28;20094;-54
2024/03/08 04:34:15;;;;;;;32.55;15.00;;;;;;;;;;5071805;28;20104;-53
2024/03/08 04:36:41;;;;;;;36.08;16.08;;;;;;;;;;5068624;28;20032;-53
2024/03/08 04:39:12;;;;;;;35.53;16.63;;;;;;;;;;5077735;28;20027;-54
2024/03/08 04:41:38;;;;;;;43.08;15.90;;;;;;;;;;5054152;28;20046;-53
2024/03/08 04:44:04;;;;;;;38.78;15.98;;;;;;;;;;5086304;28;20099;-54
2024/03/08 04:46:30;;;;;;;36.97;15.65;;;;;;;;;;5078763;28;20028;-54
2024/03/08 04:48:56;;;;;;;32.53;14.18;;;;;;;;;;5081952;28;20373;-54
2024/03/08 04:51:22;;;;;;;38.70;16.80;;;;;;;;;;5077465;28;20028;-54
2024/03/08 04:53:48;;;;;;;35.53;15.07;;;;;;;;;;5071634;28;20028;-54
2024/03/08 04:56:14;;;;;;;32.28;14.13;;;;;;;;;;5079380;28;20035;-52
2024/03/08 04:58:40;;;;;;;35.70;15.43;;;;;;;;;;5083709;28;20480;-54
2024/03/08 05:01:10;;;;;;;33.78;15.48;;;;;;;;;;5080738;28;20047;-53
2024/03/08 05:03:36;;;;;;;37.13;14.85;;;;;;;;;;5070685;28;20025;-55
2024/03/08 05:06:02;;;;;;;37.17;16.02;;;;;;;;;;5068974;28;20044;-53
2024/03/08 05:08:28;;;;;;;36.33;16.05;;;;;;;;;;5071434;28;20033;-52
2024/03/08 05:10:54;;;;;;;39.78;16.20;;;;;;;;;;5071245;28;20508;-53
2024/03/08 05:13:20;;;;;;;36.55;15.43;;;;;;;;;;5071432;28;20108;-55
2024/03/08 05:15:52;;;;;;;39.58;16.42;;;;;;;;;;5071922;28;20112;-51
2024/03/08 05:18:18;;;;;;;33.63;15.97;;;;;;;;;;5074468;28;20531;-52
2024/03/08 05:20:44;;;;;;;36.85;15.70;;;;;;;;;;5071011;28;20033;-54
2024/03/08 05:23:10;;;;;;;37.22;16.58;;;;;;;;;;5045324;28;20036;-54
2024/03/08 05:25:36;;;;;;;42.40;16.42;;;;;;;;;;5082573;28;20087;-53
2024/03/08 05:28:04;;;;;;;37.17;15.15;;;;;;;;;;5075474;28;20029;-53
2024/03/08 05:30:30;;;;;;;33.33;15.85;;;;;;;;;;5083591;28;20024;-53
2024/03/08 05:32:56;;;;;;;36.25;16.73;;;;;;;;;;5078114;28;20384;-53
2024/03/08 05:35:22;;;;;;;41.67;16.75;;;;;;;;;;5081898;28;20078;-54
2024/03/08 05:37:48;;;;;;;38.90;16.17;;;;;;;;;;5082634;28;20037;-54
2024/03/08 05:40:15;;;;;;;34.28;15.00;;;;;;;;;;5077283;28;20408;-53
2024/03/08 05:42:40;;;;;;;39.33;15.57;;;;;;;;;;5077077;28;20192;-52
2024/03/08 05:45:07;;;;;;;40.38;17.85;;;;;;;;;;5080317;28;20032;-53
2024/03/08 05:47:33;;;;;;;39.67;15.73;;;;;;;;;;5090053;28;20028;-54
2024/03/08 05:49:59;;;;;;;36.97;15.98;;;;;;;;;;5081724;28;20093;-54
2024/03/08 05:52:25;;;;;;;33.13;15.30;;;;;;;;;;5084102;28;20017;-53
2024/03/08 05:54:51;;;;;;;33.38;15.52;;;;;;;;;;5077347;28;20029;-54
2024/03/08 05:57:18;;;;;;;35.90;16.00;;;;;;;;;;5088594;28;20039;-53
2024/03/08 05:59:43;;;;;;;41.63;17.42;;;;;;;;;;5073840;28;20131;-54
2024/03/08 06:02:09;;;;;;;36.58;15.85;;;;;;;;;;5074757;28;20047;-51
2024/03/08 06:04:35;;;;;;;37.67;14.88;;;;;;;;;;5073203;28;20040;-52
2024/03/08 06:07:03;;;;;;;41.33;16.50;;;;;;;;;;5057007;28;20063;-53
2024/03/08 06:09:29;;;;;;;39.00;16.15;;;;;;;;;;5074791;28;20453;-55
2024/03/08 06:11:57;;;;;;;39.60;15.63;;;;;;;;;;5081385;28;20024;-54
2024/03/08 06:14:23;;;;;;;35.65;15.65;;;;;;;;;;5082678;28;20106;-54
2024/03/08 06:16:51;;;;;;;40.30;17.27;;;;;;;;;;5079078;28;20465;-54
2024/03/08 06:19:18;;;;;;;42.83;16.92;;;;;;;;;;5068741;28;20488;-54
2024/03/08 06:21:44;;;;;;;39.13;17.52;;;;;;;;;;5071943;28;20100;-54
2024/03/08 06:24:09;;;;;;;40.05;16.80;;;;;;;;;;5071798;28;20020;-52
2024/03/08 06:26:37;;;;;;;40.33;17.20;;;;;;;;;;5073342;28;20028;-55
2024/03/08 06:29:06;;;;;;;43.63;18.42;;;;;;;;;;5072578;28;20083;-55
2024/03/08 06:31:32;;;;;;;34.45;15.25;;;;;;;;;;5067910;28;20448;-54
2024/03/08 06:33:58;;;;;;;45.03;17.38;;;;;;;;;;5072638;28;20025;-55
2024/03/08 06:36:24;;;;;;;45.00;17.55;;;;;;;;;;5070455;28;20029;-52
2024/03/08 06:38:50;;;;;;;44.08;17.30;;;;;;;;;;5072579;28;20104;-53
2024/03/08 06:41:16;;;;;;;43.30;17.63;;;;;;;;;;5071979;28;20464;-53
2024/03/08 06:43:46;;;;;;;43.55;18.33;;;;;;;;;;5075121;28;20036;-54
2024/03/08 06:46:12;;;;;;;49.38;19.33;;;;;;;;;;5072417;28;20056;-53
2024/03/08 06:48:41;;;;;;;51.47;17.77;;;;;;;;;;5073481;28;20032;-54
2024/03/08 06:51:07;;;;;;;41.70;17.35;;;;;;;;;;5072100;28;20024;-52
2024/03/08 06:53:37;;;;;;;43.40;17.65;;;;;;;;;;5072533;28;20044;-53
2024/03/08 06:56:03;;;;;;;42.22;17.90;;;;;;;;;;5073678;28;20024;-54
2024/03/08 06:58:29;;;;;;;41.50;17.63;;;;;;;;;;5072679;28;20032;-52
2024/03/08 07:00:58;;;;;;;40.08;17.90;;;;;;;;;;5072903;28;20031;-52
2024/03/08 07:03:24;;;;;;;42.38;16.42;;;;;;;;;;5081076;28;20364;-53
2024/03/08 07:05:50;;;;;;;46.17;19.17;;;;;;;;;;5075107;28;20035;-53
2024/03/08 07:08:16;;;;;;;46.13;18.63;;;;;;;;;;5072626;28;20021;-54
2024/03/08 07:10:42;;;;;;;40.58;18.23;;;;;;;;;;5070298;28;20392;-54
2024/03/08 07:13:08;;;;;;;46.38;17.42;;;;;;;;;;5071666;28;20029;-52
2024/03/08 07:15:35;;;;;;;45.88;18.52;;;;;;;;;;5070840;28;20028;-51
2024/03/08 07:18:01;;;;;;;48.55;20.30;;;;;;;;;;5079363;28;20054;-52
2024/03/08 07:20:28;;;;;;;52.55;20.45;;;;;;;;;;5074820;28;20029;-55
2024/03/08 07:22:54;;;;;;;52.78;28.98;;;;;;;;;;5070611;28;20488;-54
2024/03/08 07:25:20;;;;;;;48.90;20.25;;;;;;;;;;5078456;28;20111;-54
2024/03/08 07:27:47;;;;;;;58.30;25.98;;;;;;;;;;5084693;28;20028;-54
2024/03/08 07:30:51;;;;;;;49.88;20.77;;;;;;;;;;5088260;28;20400;-55
2024/03/08 07:32:59;;;;;;;49.03;20.88;;;;;;;;;;5077197;28;20039;-52
2024/03/08 07:35:26;;;;;;;63.22;29.15;;;;;;;;;;5082508;28;20032;-53
2024/03/08 07:37:54;;;;;;;49.67;20.70;;;;;;;;;;5079745;28;20020;-54
2024/03/08 07:40:20;;;;;;;52.53;23.55;;;;;;;;;;5079949;28;20168;-53
2024/03/08 07:42:46;;;;;;;39.50;19.63;;;;;;;;;;5088234;28;20407;-54
2024/03/08 07:45:12;;;;;;;40.58;19.42;;;;;;;;;;5077366;28;20027;-53
2024/03/08 07:47:40;;;;;;;59.00;23.00;;;;;;;;;;5072203;28;20032;-54
2024/03/08 07:50:08;;;;;;;42.25;19.67;;;;;;;;;;5085533;28;20025;-53
2024/03/08 07:52:34;;;;;;;112.80;44.80;;;;;;;;;;5085661;28;20096;-52
2024/03/08 07:55:00;;;;;;;52.22;24.92;;;;;;;;;;5080935;28;20036;-52
2024/03/08 07:57:26;;;;;;;69.93;30.00;;;;;;;;;;5090662;28;20518;-53
2024/03/08 07:59:52;;;;;;;52.03;20.98;;;;;;;;;;5082146;28;20345;-53
2024/03/08 08:02:18;;;;;;;115.45;47.58;;;;;;;;;;5076763;28;20036;-54
2024/03/08 08:04:47;;;;;;;48.47;21.30;;;;;;;;;;5073181;28;20033;-53
2024/03/08 08:07:14;;;;;;;52.60;21.95;;;;;;;;;;5075888;28;20052;-51
2024/03/08 08:09:42;;;;;;;44.83;20.55;;;;;;;;;;5079892;28;20063;-52
2024/03/08 08:12:11;;;;;;;51.92;21.80;;;;;;;;;;5081169;28;20070;-55
2024/03/08 08:14:37;;;;;;;46.00;19.52;;;;;;;;;;5084997;28;20553;-55
2024/03/08 08:17:04;;;;;;;48.47;23.63;;;;;;;;;;5077991;28;20032;-53
2024/03/08 08:19:30;;;;;;;39.50;19.00;;;;;;;;;;5094341;28;20070;-55
2024/03/08 08:21:57;;;;;;;45.58;21.75;;;;;;;;;;5102817;28;20055;-53
2024/03/08 08:24:23;;;;;;;62.15;37.88;;;;;;;;;;5092155;28;20036;-55
2024/03/08 08:26:49;;;;;;;55.72;29.45;;;;;;;;;;5099332;28;20040;-54
2024/03/08 08:29:16;;;;;;;44.78;19.83;;;;;;;;;;5092007;28;20042;-56
2024/03/08 08:31:42;;;;;;;37.75;18.30;;;;;;;;;;5095404;28;20085;-52
2024/03/08 08:34:11;;;;;;;34.15;16.80;;;;;;;;;;5090458;28;20032;-55
2024/03/08 08:36:37;;;;;;;35.38;15.70;;;;;;;;;;5100104;28;20037;-55
2024/03/08 08:39:03;;;;;;;33.65;16.17;;;;;;;;;;5094957;28;20387;-53
2024/03/08 08:41:29;;;;;;;36.33;17.63;;;;;;;;;;5094536;28;20125;-54
2024/03/08 08:43:55;;;;;;;36.25;16.08;;;;;;;;;;5091316;28;20027;-54
2024/03/08 08:46:21;;;;;;;33.08;15.45;;;;;;;;;;5097631;28;20395;-54
2024/03/08 08:48:47;;;;;;;33.75;15.20;;;;;;;;;;5090969;28;20028;-53
2024/03/08 08:51:13;;;;;;;34.53;14.93;;;;;;;;;;5091689;28;20364;-53
2024/03/08 08:53:43;;;;;;;31.67;14.25;;;;;;;;;;5093871;28;20077;-54
2024/03/08 08:56:15;;;;;;;26.50;14.23;;;;;;;;;;5093716;28;20038;-54
2024/03/08 08:58:42;;;;;;;25.02;13.40;;;;;;;;;;5091233;28;20086;-54
2024/03/08 09:01:09;;;;;;;28.92;13.38;;;;;;;;;;5090341;28;20059;-54
2024/03/08 09:03:36;;;;;;;29.35;14.32;;;;;;;;;;5094027;28;20396;-52
2024/03/08 09:06:03;;;;;;;30.35;13.45;;;;;;;;;;5095329;28;20016;-55
2024/03/08 09:08:29;;;;;;;29.77;13.75;;;;;;;;;;5096371;28;20024;-54
2024/03/08 09:10:55;;;;;;;30.63;15.30;;;;;;;;;;5096659;28;20028;-54
2024/03/08 09:13:21;;;;;;;36.75;15.95;;;;;;;;;;5094719;28;20111;-54
2024/03/08 09:15:47;;;;;;;33.42;14.95;;;;;;;;;;5096342;28;20051;-53
2024/03/08 09:18:14;;;;;;;33.00;14.80;;;;;;;;;;5106507;28;20083;-55
2024/03/08 09:20:41;;;;;;;29.75;14.35;;;;;;;;;;5092868;28;20480;-55
2024/03/08 09:23:08;;;;;;;26.90;14.00;;;;;;;;;;5089623;28;20114;-55
2024/03/08 09:25:34;;;;;;;30.65;14.95;;;;;;;;;;5095231;28;20404;-53
2024/03/08 09:28:00;;;;;;;36.45;15.93;;;;;;;;;;5094070;28;20387;-54
2024/03/08 09:30:26;;;;;;;31.90;15.43;;;;;;;;;;5089292;28;20020;-53
2024/03/08 09:32:52;;;;;;;29.88;14.55;;;;;;;;;;5089753;28;20078;-55
2024/03/08 09:35:18;;;;;;;29.30;14.73;;;;;;;;;;5094398;28;20035;-54
2024/03/08 09:37:44;;;;;;;38.13;16.42;;;;;;;;;;5094042;28;20047;-53
2024/03/08 09:40:15;;;;;;;29.80;14.68;;;;;;;;;;5082779;28;20032;-55
2024/03/08 09:42:41;;;;;;;33.15;15.02;;;;;;;;;;5101064;28;20032;-55
2024/03/08 09:45:15;;;;;;;30.95;13.52;;;;;;;;;;5090442;28;20115;-52
2024/03/08 09:47:41;;;;;;;28.05;14.40;;;;;;;;;;5102611;28;20020;-52
2024/03/08 09:50:12;;;;;;;34.63;15.13;;;;;;;;;;5094875;28;20085;-54
2024/03/08 09:52:41;;;;;;;29.25;14.48;;;;;;;;;;5093429;28;20623;-53
2024/03/08 09:55:07;;;;;;;34.28;15.30;;;;;;;;;;5080243;28;20028;-53
2024/03/08 09:57:33;;;;;;;31.92;14.02;;;;;;;;;;5085538;28;20034;-52
2024/03/08 09:59:59;;;;;;;29.35;14.82;;;;;;;;;;5091344;28;20028;-55
2024/03/08 10:02:26;;;;;;;31.73;14.30;;;;;;;;;;5078881;28;20028;-54
2024/03/08 10:04:53;;;;;;;29.52;15.05;;;;;;;;;;5092875;28;20030;-52
2024/03/08 10:07:19;;;;;;;30.88;14.63;;;;;;;;;;5094141;28;20563;-56
2024/03/08 10:09:50;;;;;;;30.98;14.82;;;;;;;;;;5086184;28;20055;-53
2024/03/08 10:12:17;;;;;;;34.22;15.38;;;;;;;;;;5076546;28;20028;-54
2024/03/08 10:14:43;;;;;;;22.85;12.63;;;;;;;;;;5088597;28;20078;-55
2024/03/08 10:17:09;;;;;;;24.55;12.25;;;;;;;;;;5097495;28;20047;-54
2024/03/08 10:19:35;;;;;;;21.77;11.38;;;;;;;;;;5092177;28;20398;-56
2024/03/08 10:22:01;;;;;;;24.73;12.10;;;;;;;;;;5093553;28;20028;-55
2024/03/08 10:24:27;;;;;;;26.30;11.38;;;;;;;;;;5086399;28;20036;-57
2024/03/08 10:26:54;;;;;;;20.73;11.75;;;;;;;;;;5089069;28;20392;-52
2024/03/08 10:29:20;;;;;;;21.80;11.40;;;;;;;;;;5109450;28;20425;-56
2024/03/08 10:31:46;;;;;;;20.67;11.07;;;;;;;;;;5092210;28;20101;-55
2024/03/08 10:34:12;;;;;;;19.33;11.27;;;;;;;;;;5101228;28;20115;-54
2024/03/08 10:36:39;;;;;;;22.35;10.52;;;;;;;;;;5104016;28;20499;-56
2024/03/08 10:39:08;;;;;;;21.95;11.73;;;;;;;;;;5094361;28;20475;-56
2024/03/08 10:41:35;;;;;;;21.20;10.80;;;;;;;;;;5080077;28;20456;-56
2024/03/08 10:44:16;;;;;;;22.98;11.25;;;;;;;;;;5077950;28;20127;-56
2024/03/08 10:46:55;;;;;;;18.45;10.68;;;;;;;;;;5095771;28;20517;-56
2024/03/08 10:49:26;;;;;;;18.73;10.57;;;;;;;;;;5096340;28;20447;-55
2024/03/08 10:51:53;;;;;;;21.15;11.00;;;;;;;;;;5086871;28;20052;-57
2024/03/08 10:54:20;;;;;;;18.55;10.50;;;;;;;;;;5092257;28;20059;-58
2024/03/08 10:56:47;;;;;;;18.67;10.27;;;;;;;;;;5065497;28;20021;-57
2024/03/08 10:59:13;;;;;;;21.45;10.73;;;;;;;;;;5085794;28;20038;-57
2024/03/08 11:01:40;;;;;;;19.08;9.55;;;;;;;;;;5101735;28;20062;-56
2024/03/08 11:04:06;;;;;;;14.95;8.18;;;;;;;;;;5089213;28;20075;-54
2024/03/08 11:06:37;;;;;;;18.40;9.65;;;;;;;;;;5090800;28;20024;-56
2024/03/08 11:09:04;;;;;;;17.15;9.32;;;;;;;;;;5092589;28;20478;-57
2024/03/08 11:11:31;;;;;;;16.55;9.60;;;;;;;;;;5102037;28;20093;-55
2024/03/08 11:14:01;;;;;;;16.60;8.95;;;;;;;;;;5092593;28;20048;-56
2024/03/08 11:16:27;;;;;;;14.73;9.10;;;;;;;;;;5084836;28;20035;-55
2024/03/08 11:19:04;;;;;;;18.02;8.93;;;;;;;;;;5084643;28;20122;-56
2024/03/08 11:21:33;;;;;;;17.42;9.23;;;;;;;;;;5092224;28;20045;-55
2024/03/08 11:24:02;;;;;;;15.57;8.43;;;;;;;;;;5100253;28;20027;-55
2024/03/08 11:26:35;;;;;;;16.52;9.18;;;;;;;;;;5089317;28;20186;-57
2024/03/08 11:29:36;;;;;;;23.02;8.95;;;;;;;;;;5093223;28;20028;-55
2024/03/08 11:32:12;;;;;;;17.05;9.20;;;;;;;;;;5087329;28;20020;-56
2024/03/08 11:34:40;;;;;;;15.95;8.50;;;;;;;;;;5075811;28;20036;-55
2024/03/08 11:37:09;;;;;;;16.15;8.07;;;;;;;;;;5095658;28;20038;-55
2024/03/08 11:39:37;;;;;;;17.48;8.50;;;;;;;;;;5091564;28;20091;-56
2024/03/08 11:42:03;;;;;;;20.27;8.40;;;;;;;;;;5077024;28;20511;-57
2024/03/08 11:44:31;;;;;;;14.00;8.55;;;;;;;;;;5086691;28;20020;-55
2024/03/08 11:46:57;;;;;;;19.27;8.82;;;;;;;;;;5091945;28;20024;-55
2024/03/08 11:49:25;;;;;;;14.93;8.25;;;;;;;;;;5092596;28;20016;-55
2024/03/08 11:51:52;;;;;;;15.77;9.20;;;;;;;;;;5084332;28;20024;-57
2024/03/08 11:54:18;;;;;;;14.38;8.50;;;;;;;;;;5086663;28;20020;-57
2024/03/08 11:56:48;;;;;;;14.55;8.63;;;;;;;;;;5098374;28;20461;-56
2024/03/08 11:59:14;;;;;;;15.95;9.30;;;;;;;;;;5090945;28;20499;-55
2024/03/08 12:01:40;;;;;;;17.55;8.65;;;;;;;;;;5092473;28;20379;-58
2024/03/08 12:04:06;;;;;;;17.30;9.48;;;;;;;;;;5080704;28;20020;-56
2024/03/08 12:06:40;;;;;;;17.25;8.80;;;;;;;;;;5095768;28;20042;-55
2024/03/08 12:09:12;;;;;;;15.45;8.60;;;;;;;;;;5096145;28;20027;-56
2024/03/08 12:11:38;;;;;;;15.53;8.77;;;;;;;;;;5094847;28;20032;-55
2024/03/08 12:14:06;;;;;;;16.73;8.80;;;;;;;;;;5079767;28;20078;-56
2024/03/08 12:16:32;;;;;;;18.65;8.60;;;;;;;;;;5081241;28;20028;-56
2024/03/08 12:18:58;;;;;;;13.75;8.10;;;;;;;;;;5101481;28;20127;-55
2024/03/08 12:21:29;;;;;;;13.05;7.53;;;;;;;;;;5091274;28;20494;-56
2024/03/08 12:24:13;;;;;;;13.70;7.82;;;;;;;;;;5101130;28;20036;-56
2024/03/08 12:26:42;;;;;;;14.10;8.40;;;;;;;;;;5093640;28;20097;-57
2024/03/08 12:29:18;;;;;;;13.10;7.68;;;;;;;;;;5096436;28;20096;-56
2024/03/08 12:31:44;;;;;;;12.68;7.90;;;;;;;;;;5088094;28;20051;-57
2024/03/08 12:34:10;;;;;;;13.18;8.32;;;;;;;;;;5085563;28;20062;-56
2024/03/08 12:36:37;;;;;;;14.68;8.30;;;;;;;;;;5090130;28;20143;-57
2024/03/08 12:39:07;;;;;;;15.45;8.13;;;;;;;;;;5083511;28;20043;-60
2024/03/08 12:41:34;;;;;;;15.00;8.27;;;;;;;;;;5089016;28;20024;-58
2024/03/08 12:44:01;;;;;;;12.20;7.80;;;;;;;;;;5090755;28;20115;-59
2024/03/08 12:46:28;;;;;;;13.98;7.40;;;;;;;;;;5087781;28;20063;-60
2024/03/08 12:48:56;;;;;;;12.30;7.53;;;;;;;;;;5061615;28;20024;-60
2024/03/08 12:51:22;;;;;;;16.85;8.30;;;;;;;;;;5090529;28;20400;-60
2024/03/08 12:53:48;;;;;;;10.38;6.85;;;;;;;;;;5096736;28;20098;-59
2024/03/08 12:56:17;;;;;;;13.25;7.05;;;;;;;;;;5098849;28;20447;-60
2024/03/08 12:58:43;;;;;;;10.50;6.55;;;;;;;;;;5088547;28;20031;-59
2024/03/08 13:01:09;;;;;;;12.65;7.38;;;;;;;;;;5095231;28;20023;-60
2024/03/08 13:03:35;;;;;;;11.52;6.72;;;;;;;;;;5097604;28;20049;-59
2024/03/08 13:06:02;;;;;;;10.35;7.13;;;;;;;;;;5088505;28;20056;-58
2024/03/08 13:08:29;;;;;;;10.30;5.95;;;;;;;;;;5093187;28;20103;-59
2024/03/08 13:10:55;;;;;;;11.98;7.10;;;;;;;;;;5090324;28;20059;-60
2024/03/08 13:13:22;;;;;;;11.43;6.93;;;;;;;;;;5090465;28;20032;-60
2024/03/08 13:15:48;;;;;;;12.48;6.93;;;;;;;;;;5090217;28;20028;-59
2024/03/08 13:18:15;;;;;;;11.15;7.25;;;;;;;;;;5079928;28;20047;-59
2024/03/08 13:20:44;;;;;;;12.52;7.97;;;;;;;;;;5063673;28;20024;-60
2024/03/08 13:23:09;;;;;;;12.75;7.53;;;;;;;;;;5070953;28;20040;-59
2024/03/08 13:25:38;;;;;;;12.32;7.75;;;;;;;;;;5075967;28;20036;-59
2024/03/08 13:28:05;;;;;;;10.77;6.68;;;;;;;;;;5068587;28;20021;-60
2024/03/08 13:30:31;;;;;;;12.63;7.18;;;;;;;;;;5060711;28;20485;-60
2024/03/08 13:32:57;;;;;;;13.27;7.88;;;;;;;;;;5078841;28;20016;-59
2024/03/08 13:35:29;;;;;;;14.65;7.28;;;;;;;;;;5066001;28;20029;-59
2024/03/08 13:37:55;;;;;;;17.10;9.17;;;;;;;;;;5068367;28;20028;-60
2024/03/08 13:40:21;;;;;;;13.75;8.48;;;;;;;;;;5070472;28;20024;-56
2024/03/08 13:42:51;;;;;;;16.77;8.82;;;;;;;;;;5070583;28;20039;-60
2024/03/08 13:45:23;;;;;;;14.27;8.82;;;;;;;;;;5071947;28;20138;-59
2024/03/08 13:47:54;;;;;;;13.88;8.75;;;;;;;;;;5048553;28;20037;-56
2024/03/08 13:50:23;;;;;;;12.98;8.32;;;;;;;;;;5070048;28;20413;-57
2024/03/08 13:52:53;;;;;;;13.82;8.48;;;;;;;;;;5074699;28;20079;-58
2024/03/08 13:55:19;;;;;;;13.27;8.07;;;;;;;;;;5076589;28;20030;-57
2024/03/08 13:57:46;;;;;;;13.10;8.13;;;;;;;;;;5073451;28;20468;-57
2024/03/08 14:00:13;;;;;;;15.10;9.18;;;;;;;;;;5073521;28;20021;-58
2024/03/08 14:02:40;;;;;;;16.58;8.77;;;;;;;;;;5072810;28;20032;-57
2024/03/08 14:05:08;;;;;;;16.27;9.63;;;;;;;;;;5073148;28;20031;-57
2024/03/08 14:07:34;;;;;;;15.85;8.18;;;;;;;;;;5063325;28;20077;-58
2024/03/08 14:10:00;;;;;;;17.88;9.07;;;;;;;;;;5071470;28;20103;-57
2024/03/08 14:12:26;;;;;;;14.93;8.65;;;;;;;;;;5081838;28;20035;-58
2024/03/08 14:14:53;;;;;;;12.98;8.13;;;;;;;;;;5080095;28;20028;-57
2024/03/08 14:17:19;;;;;;;16.08;8.27;;;;;;;;;;5073122;28;20048;-57
2024/03/08 14:19:45;;;;;;;17.75;8.90;;;;;;;;;;5068577;28;20029;-57